Time;durP1;ratioP1;P1;durP2;ratioP2;P2;SDS_P1;SDS_P2;PMS_P1;PMS_P2;Temp;Humidity;BMP_temperature;BMP_pressure;BME280_temperature;BME280_humidity;BME280_pressure;Samples;Min_cycle;Max_cycle;Signal;HPM_P1;HPM_P2
2023/11/12 00:00:20;;;;;;;3.23;1.67;;;11.90;55.80;;;;;;5006917;28;20217;-51
2023/11/12 00:02:46;;;;;;;1.87;1.50;;;11.90;55.80;;;;;;5006683;28;20186;-50
2023/11/12 00:05:12;;;;;;;2.30;1.57;;;11.90;55.80;;;;;;5000612;28;20802;-53
2023/11/12 00:07:37;;;;;;;2.13;1.67;;;11.90;55.80;;;;;;5001395;28;20713;-54
2023/11/12 00:10:03;;;;;;;1.83;1.67;;;11.70;56.20;;;;;;5001519;28;20208;-49
2023/11/12 00:12:29;;;;;;;1.70;1.53;;;11.70;56.20;;;;;;5006865;28;20742;-50
2023/11/12 00:14:55;;;;;;;3.33;1.80;;;11.70;56.20;;;;;;5006869;28;20226;-54
2023/11/12 00:17:21;;;;;;;1.47;1.33;;;11.70;56.20;;;;;;5002333;28;20463;-51
2023/11/12 00:19:47;;;;;;;3.23;1.57;;;11.90;56.00;;;;;;5002236;28;20980;-54
2023/11/12 00:22:13;;;;;;;2.23;1.30;;;12.00;55.80;;;;;;5005850;28;20174;-48
2023/11/12 00:24:39;;;;;;;1.73;1.40;;;12.10;55.60;;;;;;5009224;28;20185;-50
2023/11/12 00:27:04;;;;;;;3.60;1.70;;;12.10;55.50;;;;;;5002089;28;20239;-51
2023/11/12 00:29:31;;;;;;;2.23;1.77;;;12.10;55.40;;;;;;5001153;28;20895;-48
2023/11/12 00:31:57;;;;;;;1.23;1.13;;;12.10;55.30;;;;;;5001114;28;20344;-48
2023/11/12 00:34:23;;;;;;;1.90;1.80;;;12.20;55.40;;;;;;5001266;28;21046;-52
2023/11/12 00:36:49;;;;;;;1.47;1.37;;;12.20;55.20;;;;;;5001180;28;20430;-47
2023/11/12 00:39:15;;;;;;;1.70;1.60;;;12.10;55.40;;;;;;5004696;28;20256;-47
2023/11/12 00:41:41;;;;;;;1.70;1.60;;;12.00;55.80;;;;;;5007167;28;21059;-48
2023/11/12 00:44:10;;;;;;;2.00;1.50;;;11.90;55.90;;;;;;5006770;28;20499;-53
2023/11/12 00:46:40;;;;;;;2.03;1.50;;;11.90;56.00;;;;;;5003322;28;21209;-48
2023/11/12 00:49:07;;;;;;;1.63;1.50;;;11.90;56.30;;;;;;5006861;28;20825;-48
2023/11/12 00:51:33;;;;;;;1.73;1.20;;;11.80;56.40;;;;;;5006054;28;20433;-48
2023/11/12 00:53:58;;;;;;;1.40;1.30;;;11.80;56.20;;;;;;5005578;28;20972;-49
2023/11/12 00:56:24;;;;;;;1.50;1.40;;;11.80;56.10;;;;;;5005041;28;20448;-49
2023/11/12 00:58:50;;;;;;;3.23;1.43;;;11.90;55.90;;;;;;5006374;28;20639;-49
2023/11/12 01:01:15;;;;;;;1.70;1.60;;;11.70;56.00;;;;;;5005408;28;20193;-52
2023/11/12 01:03:41;;;;;;;2.53;1.43;;;11.50;56.20;;;;;;5006477;28;20186;-47
2023/11/12 01:06:06;;;;;;;2.03;1.60;;;11.30;57.10;;;;;;5000649;28;20563;-53
2023/11/12 01:08:32;;;;;;;1.53;1.40;;;11.50;57.00;;;;;;5004010;28;20209;-49
2023/11/12 01:10:58;;;;;;;4.33;1.40;;;11.40;56.90;;;;;;4999034;28;20201;-50
2023/11/12 01:13:24;;;;;;;2.00;1.40;;;11.50;57.10;;;;;;5005182;28;20190;-52
2023/11/12 01:15:49;;;;;;;1.50;1.17;;;11.30;57.00;;;;;;5005663;28;20267;-54
2023/11/12 01:18:16;;;;;;;1.90;1.43;;;11.00;57.70;;;;;;5005705;28;20593;-47
2023/11/12 01:20:42;;;;;;;2.03;1.70;;;10.80;58.30;;;;;;5002774;28;20190;-47
2023/11/12 01:23:07;;;;;;;3.43;1.60;;;10.60;58.60;;;;;;5004587;28;20433;-51
2023/11/12 01:25:33;;;;;;;1.87;1.40;;;10.70;58.90;;;;;;5004891;28;20471;-48
2023/11/12 01:27:59;;;;;;;2.03;1.30;;;10.70;58.60;;;;;;5004334;28;20552;-48
2023/11/12 01:30:25;;;;;;;2.23;1.47;;;11.00;58.40;;;;;;5005130;28;20185;-48
2023/11/12 01:32:52;;;;;;;1.97;1.70;;;10.80;58.20;;;;;;5006285;28;20437;-48
2023/11/12 01:35:19;;;;;;;2.00;1.73;;;10.90;58.30;;;;;;5005738;28;22150;-50
2023/11/12 01:37:45;;;;;;;2.57;1.60;;;10.80;58.30;;;;;;5004531;28;20776;-48
2023/11/12 01:40:11;;;;;;;1.60;1.50;;;10.70;58.70;;;;;;5000185;28;20463;-53
2023/11/12 01:42:37;;;;;;;1.30;1.20;;;10.60;58.90;;;;;;5003525;28;20202;-52
2023/11/12 01:45:03;;;;;;;1.40;1.30;;;10.40;59.00;;;;;;5002961;28;20453;-48
2023/11/12 01:47:30;;;;;;;2.00;1.50;;;10.60;59.10;;;;;;5004120;28;20333;-49
2023/11/12 01:49:56;;;;;;;1.60;1.47;;;11.00;58.50;;;;;;5001483;28;20472;-47
2023/11/12 01:52:22;;;;;;;2.30;1.60;;;11.20;58.00;;;;;;5003387;28;21031;-47
2023/11/12 01:54:48;;;;;;;5.23;1.40;;;11.40;57.50;;;;;;5001217;28;20515;-47
2023/11/12 01:57:13;;;;;;;1.50;1.23;;;11.40;57.70;;;;;;5003451;28;20480;-51
2023/11/12 01:59:39;;;;;;;1.70;1.60;;;11.50;57.50;;;;;;5005761;28;20544;-52
2023/11/12 02:02:05;;;;;;;2.73;1.63;;;11.40;57.60;;;;;;5000549;28;20213;-49
2023/11/12 02:04:31;;;;;;;1.93;1.77;;;11.50;57.50;;;;;;5007131;28;20976;-50
2023/11/12 02:06:59;;;;;;;1.53;1.43;;;11.50;57.40;;;;;;5001963;28;20518;-50
2023/11/12 02:09:24;;;;;;;1.63;1.53;;;11.50;57.50;;;;;;5006224;28;20206;-51
2023/11/12 02:11:54;;;;;;;4.23;1.53;;;11.70;57.10;;;;;;5005651;28;20436;-51
2023/11/12 02:14:21;;;;;;;1.60;1.50;;;11.80;56.90;;;;;;5007766;28;20701;-48
2023/11/12 02:16:49;;;;;;;1.50;1.20;;;11.90;56.80;;;;;;5005819;28;21037;-51
2023/11/12 02:19:33;;;;;;;1.87;1.40;;;12.00;56.80;;;;;;5007153;28;20469;-51
2023/11/12 02:21:59;;;;;;;2.20;1.30;;;11.90;56.70;;;;;;4998171;28;20503;-49
2023/11/12 02:24:24;;;;;;;1.13;1.03;;;12.00;56.70;;;;;;5003309;28;20445;-49
2023/11/12 02:26:50;;;;;;;1.57;1.33;;;12.00;56.60;;;;;;5004704;28;20198;-49
2023/11/12 02:29:16;;;;;;;2.07;1.20;;;12.00;56.30;;;;;;5006138;28;20221;-48
2023/11/12 02:31:42;;;;;;;1.97;1.30;;;12.10;56.30;;;;;;5009928;28;20440;-48
2023/11/12 02:34:08;;;;;;;1.60;1.50;;;12.20;56.30;;;;;;5010233;28;20704;-51
2023/11/12 02:36:35;;;;;;;3.07;1.97;;;12.10;56.30;;;;;;5007758;28;20432;-47
2023/11/12 02:39:01;;;;;;;1.53;1.30;;;12.00;56.00;;;;;;5011037;28;20641;-47
2023/11/12 02:41:27;;;;;;;2.00;1.80;;;12.00;56.20;;;;;;5006557;28;20958;-48
2023/11/12 02:43:52;;;;;;;2.20;1.77;;;12.00;56.00;;;;;;5009614;28;20463;-48
2023/11/12 02:46:18;;;;;;;1.10;1.10;;;11.90;55.80;;;;;;5007338;28;22507;-50
2023/11/12 02:49:07;;;;;;;1.40;1.30;;;11.90;56.10;;;;;;5006070;28;20881;-50
2023/11/12 02:51:32;;;;;;;1.53;1.43;;;11.80;56.10;;;;;;5003614;28;20197;-49
2023/11/12 02:53:58;;;;;;;1.80;1.43;;;11.80;56.70;;;;;;5005405;28;20424;-48
2023/11/12 02:56:23;;;;;;;6.17;1.63;;;11.70;56.40;;;;;;5009560;28;20590;-50
2023/11/12 02:58:49;;;;;;;1.40;1.30;;;11.80;56.30;;;;;;5007490;28;20202;-51
2023/11/12 03:01:15;;;;;;;2.53;1.77;;;12.00;56.20;;;;;;5005457;28;20276;-49
2023/11/12 03:03:41;;;;;;;1.30;1.20;;;12.00;56.10;;;;;;4993844;28;20190;-47
2023/11/12 03:06:07;;;;;;;1.53;1.07;;;12.00;56.00;;;;;;5008722;28;20433;-49
2023/11/12 03:08:33;;;;;;;1.40;1.30;;;11.90;56.00;;;;;;5010185;28;20507;-50
2023/11/12 03:10:58;;;;;;;2.93;1.33;;;12.00;56.00;;;;;;5006509;28;20193;-50
2023/11/12 03:13:25;;;;;;;2.07;1.30;;;12.00;55.80;;;;;;5009759;28;20185;-50
2023/11/12 03:15:51;;;;;;;1.40;1.30;;;12.00;55.60;;;;;;5009193;28;20225;-47
2023/11/12 03:18:17;;;;;;;2.33;1.20;;;12.10;55.50;;;;;;5005217;28;20448;-47
2023/11/12 03:20:43;;;;;;;1.50;1.17;;;12.10;55.20;;;;;;5005797;28;20515;-47
2023/11/12 03:23:08;;;;;;;1.70;1.30;;;12.20;55.30;;;;;;5001182;28;20886;-49
2023/11/12 03:25:34;;;;;;;1.20;1.10;;;12.20;55.20;;;;;;5004853;28;20200;-54
2023/11/12 03:27:59;;;;;;;1.50;1.40;;;12.20;55.00;;;;;;5001992;28;20198;-52
2023/11/12 03:30:26;;;;;;;1.23;1.13;;;12.20;54.90;;;;;;5005959;28;20193;-48
2023/11/12 03:32:51;;;;;;;1.77;1.30;;;12.20;54.60;;;;;;5005961;28;20190;-52
2023/11/12 03:35:17;;;;;;;1.27;1.00;;;12.20;54.60;;;;;;5007324;28;21070;-47
2023/11/12 03:37:42;;;;;;;1.27;1.17;;;12.10;54.50;;;;;;5004125;28;20297;-47
2023/11/12 03:40:09;;;;;;;2.73;1.40;;;12.10;54.40;;;;;;5002433;28;20209;-53
2023/11/12 03:42:35;;;;;;;1.20;1.07;;;12.00;54.40;;;;;;5004947;28;20193;-47
2023/11/12 03:45:00;;;;;;;1.30;1.00;;;12.00;54.50;;;;;;5005860;28;20475;-52
2023/11/12 03:47:26;;;;;;;3.57;1.63;;;12.00;54.50;;;;;;5004979;28;20214;-50
2023/11/12 03:49:51;;;;;;;1.40;1.30;;;11.90;54.50;;;;;;5006963;28;20202;-48
2023/11/12 03:52:17;;;;;;;2.50;1.10;;;11.80;54.70;;;;;;5005858;28;20244;-48
2023/11/12 03:54:44;;;;;;;2.07;1.30;;;11.60;55.40;;;;;;5007676;28;20246;-47
2023/11/12 03:57:10;;;;;;;2.13;1.43;;;11.20;56.30;;;;;;5006664;28;21035;-53
2023/11/12 03:59:36;;;;;;;2.27;1.70;;;11.20;56.80;;;;;;5005922;28;20580;-47
2023/11/12 04:02:03;;;;;;;2.53;1.40;;;11.30;56.70;;;;;;5007279;28;20750;-55
2023/11/12 04:04:28;;;;;;;1.50;1.40;;;11.40;56.50;;;;;;5006355;28;20515;-50
2023/11/12 04:06:54;;;;;;;2.43;1.53;;;11.40;56.40;;;;;;5007019;28;20441;-50
2023/11/12 04:09:19;;;;;;;2.67;1.60;;;11.40;56.30;;;;;;5008518;28;20607;-48
2023/11/12 04:11:45;;;;;;;1.87;1.77;;;11.20;56.40;;;;;;5005584;28;20217;-50
2023/11/12 04:14:11;;;;;;;2.20;1.80;;;11.10;56.90;;;;;;5007042;28;20237;-52
2023/11/12 04:16:36;;;;;;;1.93;1.57;;;10.90;56.90;;;;;;5003630;28;20186;-53
2023/11/12 04:19:05;;;;;;;2.30;1.50;;;10.70;57.70;;;;;;5004994;28;20213;-54
2023/11/12 04:21:30;;;;;;;2.53;1.53;;;10.70;57.70;;;;;;5003186;28;20201;-50
2023/11/12 04:23:56;;;;;;;2.70;1.90;;;10.70;57.90;;;;;;5008764;28;20819;-54
2023/11/12 04:26:22;;;;;;;1.87;1.77;;;10.70;57.90;;;;;;5000519;28;20620;-50
2023/11/12 04:28:48;;;;;;;1.90;1.80;;;10.70;57.70;;;;;;5009102;28;20468;-51
2023/11/12 04:31:13;;;;;;;4.00;2.20;;;10.80;57.70;;;;;;5005086;28;20170;-49
2023/11/12 04:33:39;;;;;;;2.27;1.93;;;10.80;57.30;;;;;;5007667;28;20244;-52
2023/11/12 04:36:05;;;;;;;2.93;1.90;;;10.70;57.80;;;;;;5002316;28;20291;-49
2023/11/12 04:38:31;;;;;;;3.03;2.03;;;10.60;57.90;;;;;;5008491;28;20198;-52
2023/11/12 04:40:57;;;;;;;3.80;2.10;;;10.50;58.30;;;;;;5006758;28;20186;-50
2023/11/12 04:43:22;;;;;;;2.90;2.37;;;10.60;58.30;;;;;;5001510;28;20460;-52
2023/11/12 04:45:48;;;;;;;3.40;2.30;;;10.50;58.40;;;;;;5000755;28;20243;-51
2023/11/12 04:48:14;;;;;;;2.47;2.27;;;10.30;58.60;;;;;;5005993;28;20845;-48
2023/11/12 04:50:39;;;;;;;2.73;2.50;;;10.40;58.70;;;;;;5008584;28;21133;-47
2023/11/12 04:53:06;;;;;;;2.53;2.30;;;10.30;58.80;;;;;;5004636;28;20885;-48
2023/11/12 04:55:31;;;;;;;3.17;2.80;;;10.20;59.10;;;;;;5001667;28;20210;-47
2023/11/12 04:57:57;;;;;;;2.40;2.20;;;10.10;59.20;;;;;;5003045;28;20542;-52
2023/11/12 05:00:23;;;;;;;2.20;2.10;;;10.20;59.20;;;;;;5005666;28;20209;-51
2023/11/12 05:02:48;;;;;;;2.20;2.00;;;10.00;59.30;;;;;;5005952;28;20182;-50
2023/11/12 05:05:15;;;;;;;2.50;2.00;;;9.90;60.80;;;;;;5003359;28;20194;-51
2023/11/12 05:07:40;;;;;;;2.70;2.23;;;9.80;61.40;;;;;;5005118;28;20194;-48
2023/11/12 05:10:08;;;;;;;2.30;2.10;;;9.70;61.90;;;;;;5006221;28;21020;-50
2023/11/12 05:12:34;;;;;;;2.57;2.37;;;9.80;61.70;;;;;;5004181;28;20194;-53
2023/11/12 05:15:00;;;;;;;3.63;2.53;;;9.60;62.40;;;;;;5005670;28;20480;-51
2023/11/12 05:17:27;;;;;;;3.97;2.30;;;9.50;62.80;;;;;;4998632;28;20503;-51
2023/11/12 05:19:52;;;;;;;2.53;2.20;;;9.60;62.80;;;;;;5004969;28;20565;-50
2023/11/12 05:22:18;;;;;;;2.60;2.33;;;9.70;62.20;;;;;;4999461;28;20532;-48
2023/11/12 05:24:43;;;;;;;2.40;2.10;;;9.70;61.90;;;;;;5002087;28;20627;-48
2023/11/12 05:27:09;;;;;;;3.40;2.40;;;9.70;61.70;;;;;;4999665;28;20236;-49
2023/11/12 05:29:35;;;;;;;2.00;1.70;;;9.70;61.90;;;;;;5000606;28;20216;-54
2023/11/12 05:32:00;;;;;;;3.47;2.90;;;9.70;61.80;;;;;;5000740;28;20194;-51
2023/11/12 05:34:26;;;;;;;2.73;2.33;;;9.80;61.30;;;;;;5001209;28;20233;-48
2023/11/12 05:36:52;;;;;;;3.00;2.80;;;9.90;61.10;;;;;;5000358;28;20194;-53
2023/11/12 05:39:17;;;;;;;4.17;2.40;;;9.80;60.50;;;;;;5004511;28;20236;-51
2023/11/12 05:41:43;;;;;;;10.93;2.30;;;9.90;61.10;;;;;;5000182;28;20197;-53
2023/11/12 05:44:08;;;;;;;2.60;2.40;;;9.90;61.10;;;;;;5003940;28;20193;-49
2023/11/12 05:46:34;;;;;;;4.97;2.47;;;9.80;60.90;;;;;;5000274;28;20567;-47
2023/11/12 05:49:00;;;;;;;3.80;2.83;;;9.80;60.80;;;;;;5003464;28;20209;-48
2023/11/12 05:51:25;;;;;;;7.40;3.00;;;9.80;61.60;;;;;;5001273;28;20553;-55
2023/11/12 05:53:51;;;;;;;4.10;3.13;;;9.60;61.10;;;;;;4999930;28;20684;-48
2023/11/12 05:56:18;;;;;;;2.70;2.50;;;9.60;61.50;;;;;;5002623;28;20189;-48
2023/11/12 05:58:44;;;;;;;2.90;2.60;;;9.70;61.30;;;;;;5004049;28;20281;-55
2023/11/12 06:01:09;;;;;;;4.10;3.00;;;9.60;61.40;;;;;;5004159;28;20536;-54
2023/11/12 06:03:35;;;;;;;3.03;2.77;;;9.70;61.60;;;;;;5001834;28;20685;-50
2023/11/12 06:06:00;;;;;;;2.67;2.47;;;9.60;61.10;;;;;;5006924;28;20272;-50
2023/11/12 06:08:26;;;;;;;2.30;2.10;;;9.60;60.70;;;;;;5006281;28;20293;-49
2023/11/12 06:10:51;;;;;;;3.00;2.70;;;9.60;61.00;;;;;;5009928;28;20177;-50
2023/11/12 06:13:17;;;;;;;5.17;3.00;;;9.40;61.60;;;;;;5010072;28;20182;-47
2023/11/12 06:15:42;;;;;;;4.00;2.63;;;9.20;62.30;;;;;;5005074;28;20871;-48
2023/11/12 06:18:08;;;;;;;9.57;4.50;;;9.20;63.00;;;;;;5005993;28;20198;-51
2023/11/12 06:20:34;;;;;;;21.47;8.90;;;9.20;62.90;;;;;;5007579;28;20654;-55
2023/11/12 06:23:00;;;;;;;42.40;18.00;;;9.10;63.30;;;;;;5005798;28;20695;-54
2023/11/12 06:25:25;;;;;;;15.83;9.40;;;9.30;62.70;;;;;;5008307;28;20198;-51
2023/11/12 06:27:51;;;;;;;5.00;4.50;;;9.20;61.70;;;;;;5008017;28;20240;-51
2023/11/12 06:30:17;;;;;;;3.40;3.10;;;9.30;62.00;;;;;;5008764;28;20205;-47
2023/11/12 06:32:43;;;;;;;2.93;2.73;;;9.30;62.00;;;;;;5010031;28;20499;-49
2023/11/12 06:35:09;;;;;;;3.27;2.97;;;9.30;62.20;;;;;;5011562;28;20308;-49
2023/11/12 06:37:34;;;;;;;4.60;3.40;;;9.40;61.60;;;;;;5006165;28;20914;-49
2023/11/12 06:40:00;;;;;;;4.93;3.70;;;9.50;61.30;;;;;;5004090;28;20221;-51
2023/11/12 06:42:26;;;;;;;3.40;3.10;;;9.60;61.10;;;;;;5003916;28;20256;-50
2023/11/12 06:44:52;;;;;;;3.37;2.80;;;9.80;62.20;;;;;;5005217;28;20975;-56
2023/11/12 06:47:18;;;;;;;4.97;3.10;;;10.10;61.40;;;;;;5003383;28;20190;-48
2023/11/12 06:49:44;;;;;;;6.97;6.23;;;10.30;60.50;;;;;;5004794;28;20223;-49
2023/11/12 06:52:10;;;;;;;4.13;3.73;;;10.60;60.90;;;;;;5004239;28;20441;-54
2023/11/12 06:54:36;;;;;;;4.77;3.30;;;10.80;60.00;;;;;;5004946;28;20256;-51
2023/11/12 06:57:01;;;;;;;4.40;3.70;;;11.00;59.50;;;;;;5004152;28;20321;-50
2023/11/12 06:59:28;;;;;;;5.20;3.80;;;11.10;58.60;;;;;;5004577;28;20664;-48
2023/11/12 07:01:53;;;;;;;4.10;3.20;;;11.20;57.90;;;;;;5003866;28;20187;-52
2023/11/12 07:04:19;;;;;;;4.00;3.70;;;11.30;57.60;;;;;;5002650;28;20439;-50
2023/11/12 07:06:45;;;;;;;4.33;3.57;;;11.40;56.70;;;;;;5011988;28;20190;-52
2023/11/12 07:09:12;;;;;;;3.67;3.37;;;11.40;56.40;;;;;;5009536;28;20242;-47
2023/11/12 07:11:38;;;;;;;3.43;2.93;;;11.60;56.40;;;;;;5009917;28;20496;-51
2023/11/12 07:14:03;;;;;;;3.23;2.80;;;11.60;55.70;;;;;;5010633;28;20449;-48
2023/11/12 07:16:29;;;;;;;4.80;2.40;;;11.60;55.80;;;;;;5006523;28;20264;-47
2023/11/12 07:18:58;;;;;;;3.27;3.07;;;11.60;55.90;;;;;;5011679;28;20654;-47
2023/11/12 07:21:34;;;;;;;3.20;2.90;;;11.70;56.10;;;;;;5009607;28;20767;-47
2023/11/12 07:23:59;;;;;;;3.07;2.73;;;11.60;56.50;;;;;;5010500;28;20471;-49
2023/11/12 07:26:26;;;;;;;3.37;2.50;;;11.70;56.10;;;;;;5008098;28;20453;-49
2023/11/12 07:28:52;;;;;;;3.70;2.87;;;11.80;55.70;;;;;;5011846;28;20209;-47
2023/11/12 07:31:19;;;;;;;3.97;3.20;;;11.80;55.40;;;;;;5007089;28;20445;-48
2023/11/12 07:33:46;;;;;;;3.10;2.90;;;11.80;55.20;;;;;;5005701;28;20825;-48
2023/11/12 07:36:12;;;;;;;3.70;3.40;;;11.80;55.00;;;;;;5009669;28;20972;-49
2023/11/12 07:38:38;;;;;;;3.30;3.00;;;11.80;55.00;;;;;;5009682;28;20522;-51
2023/11/12 07:41:04;;;;;;;2.63;2.43;;;11.90;55.20;;;;;;5009189;28;20433;-48
2023/11/12 07:43:30;;;;;;;3.00;2.70;;;11.90;54.90;;;;;;5010690;28;20464;-47
2023/11/12 07:45:55;;;;;;;3.43;3.13;;;12.00;54.60;;;;;;5008558;28;20220;-49
2023/11/12 07:48:21;;;;;;;2.90;2.70;;;12.00;54.60;;;;;;5005855;28;20209;-51
2023/11/12 07:50:46;;;;;;;4.63;3.87;;;12.00;54.60;;;;;;5003095;28;20185;-47
2023/11/12 07:53:12;;;;;;;3.50;3.20;;;11.90;54.60;;;;;;5002494;28;20182;-48
2023/11/12 07:55:38;;;;;;;4.53;3.47;;;11.90;54.70;;;;;;5008560;28;20221;-51
2023/11/12 07:58:03;;;;;;;4.83;4.37;;;11.70;55.00;;;;;;5007723;28;20540;-53
2023/11/12 08:00:29;;;;;;;5.03;3.93;;;11.70;55.80;;;;;;5006046;28;20185;-52
2023/11/12 08:02:56;;;;;;;4.50;4.00;;;11.40;55.40;;;;;;5007528;28;20700;-50
2023/11/12 08:05:22;;;;;;;4.10;3.70;;;11.10;56.40;;;;;;5006679;28;20546;-51
2023/11/12 08:07:50;;;;;;;4.30;3.13;;;11.20;56.70;;;;;;5003500;28;20437;-49
2023/11/12 08:10:18;;;;;;;3.30;3.00;;;11.20;56.60;;;;;;5004789;28;21013;-48
2023/11/12 08:12:44;;;;;;;3.30;3.00;;;11.20;56.40;;;;;;5007985;28;20507;-48
2023/11/12 08:15:12;;;;;;;5.37;3.17;;;11.10;56.40;;;;;;5007716;28;20489;-57
2023/11/12 08:17:38;;;;;;;3.07;2.80;;;11.10;56.60;;;;;;5002907;28;20432;-52
2023/11/12 08:20:04;;;;;;;4.33;3.40;;;10.80;57.10;;;;;;5008292;28;20467;-51
2023/11/12 08:22:30;;;;;;;5.70;4.20;;;10.80;57.60;;;;;;5006597;28;20874;-48
2023/11/12 08:24:57;;;;;;;3.73;3.43;;;10.20;58.50;;;;;;5008345;28;21206;-48
2023/11/12 08:27:23;;;;;;;3.97;3.67;;;9.80;60.70;;;;;;5004396;28;20429;-48
2023/11/12 08:29:49;;;;;;;4.23;3.53;;;9.80;62.20;;;;;;5003696;28;20214;-49
2023/11/12 08:32:15;;;;;;;4.70;4.27;;;9.90;62.10;;;;;;5006797;28;20708;-51
2023/11/12 08:34:41;;;;;;;3.90;3.57;;;10.30;60.10;;;;;;5008940;28;20511;-47
2023/11/12 08:37:06;;;;;;;3.70;3.40;;;10.40;59.60;;;;;;5002562;28;20197;-47
2023/11/12 08:39:32;;;;;;;4.00;3.70;;;10.60;59.20;;;;;;5003601;28;20222;-47
2023/11/12 08:41:59;;;;;;;3.53;2.93;;;10.80;59.00;;;;;;5006335;28;20665;-49
2023/11/12 08:44:24;;;;;;;3.60;3.30;;;10.80;58.80;;;;;;5007451;28;20192;-49
2023/11/12 08:46:50;;;;;;;4.40;3.50;;;10.90;58.70;;;;;;5003464;28;22292;-51
2023/11/12 08:49:15;;;;;;;3.83;3.43;;;11.00;58.60;;;;;;5007219;28;20285;-55
2023/11/12 08:51:41;;;;;;;3.60;2.83;;;10.90;58.80;;;;;;5003428;28;20690;-47
2023/11/12 08:54:09;;;;;;;2.97;2.77;;;10.90;58.90;;;;;;5010639;28;20736;-51
2023/11/12 08:56:35;;;;;;;2.90;2.70;;;10.90;58.90;;;;;;5006048;28;20483;-51
2023/11/12 08:59:03;;;;;;;3.47;2.50;;;10.90;59.00;;;;;;5008270;28;20866;-47
2023/11/12 09:01:28;;;;;;;2.77;2.57;;;10.90;58.90;;;;;;5006734;28;20456;-48
2023/11/12 09:03:54;;;;;;;3.90;2.83;;;11.00;59.20;;;;;;5003595;28;20450;-50
2023/11/12 09:06:19;;;;;;;2.20;2.10;;;11.00;59.00;;;;;;5005353;28;20182;-47
2023/11/12 09:08:45;;;;;;;2.83;2.50;;;10.80;59.20;;;;;;5004794;28;20297;-49
2023/11/12 09:11:13;;;;;;;2.93;2.73;;;10.80;59.30;;;;;;5008063;28;20182;-47
2023/11/12 09:13:39;;;;;;;2.57;2.30;;;11.00;59.40;;;;;;5009122;28;20453;-52
2023/11/12 09:16:06;;;;;;;2.73;2.27;;;11.30;59.10;;;;;;5007822;28;20556;-48
2023/11/12 09:18:33;;;;;;;3.00;2.43;;;11.50;58.30;;;;;;5008656;28;20467;-49
2023/11/12 09:20:59;;;;;;;2.23;2.03;;;11.70;57.70;;;;;;5008130;28;20969;-48
2023/11/12 09:23:25;;;;;;;3.50;2.30;;;11.80;56.90;;;;;;5007088;28;20452;-48
2023/11/12 09:25:50;;;;;;;2.40;2.17;;;12.00;56.80;;;;;;5006594;28;20452;-50
2023/11/12 09:28:16;;;;;;;3.43;2.57;;;11.50;56.40;;;;;;5008165;28;20178;-51
2023/11/12 09:30:42;;;;;;;2.30;2.10;;;11.50;56.70;;;;;;5008240;28;21065;-47
2023/11/12 09:33:09;;;;;;;3.07;2.23;;;11.70;56.60;;;;;;5008540;28;20688;-51
2023/11/12 09:35:35;;;;;;;2.20;2.00;;;11.70;56.40;;;;;;5008116;28;20210;-50
2023/11/12 09:38:00;;;;;;;2.73;2.00;;;11.80;56.00;;;;;;5007154;28;20451;-50
2023/11/12 09:40:29;;;;;;;2.90;2.40;;;11.80;55.90;;;;;;5007537;28;20429;-53
2023/11/12 09:42:56;;;;;;;4.53;2.07;;;11.90;56.00;;;;;;5008236;28;20256;-50
2023/11/12 09:45:23;;;;;;;2.13;1.93;;;12.00;55.50;;;;;;5007723;28;20959;-51
2023/11/12 09:47:54;;;;;;;2.63;2.27;;;12.20;55.00;;;;;;5008017;28;20433;-53
2023/11/12 09:50:24;;;;;;;3.63;2.93;;;12.30;54.80;;;;;;5006899;28;20452;-50
2023/11/12 09:52:52;;;;;;;4.70;3.10;;;12.50;54.70;;;;;;5006695;28;20441;-49
2023/11/12 09:55:19;;;;;;;2.80;2.37;;;12.50;54.70;;;;;;5006889;28;20481;-48
2023/11/12 09:57:46;;;;;;;5.27;2.33;;;12.40;55.10;;;;;;5006651;28;20440;-53
2023/11/12 10:00:12;;;;;;;3.00;2.43;;;12.40;55.00;;;;;;5004692;28;20489;-52
2023/11/12 10:02:39;;;;;;;2.40;2.20;;;12.50;54.70;;;;;;5005938;28;20498;-50
2023/11/12 10:05:10;;;;;;;2.13;1.93;;;12.40;54.30;;;;;;5004813;28;20437;-50
2023/11/12 10:07:42;;;;;;;4.30;2.50;;;12.30;55.20;;;;;;5007904;28;20449;-47
2023/11/12 10:10:26;;;;;;;3.20;2.30;;;12.40;55.20;;;;;;5007462;28;20452;-50
2023/11/12 10:12:53;;;;;;;3.73;2.40;;;12.30;55.10;;;;;;5009240;28;20544;-51
2023/11/12 10:15:26;;;;;;;2.30;2.10;;;12.50;55.20;;;;;;5006481;28;20519;-52
2023/11/12 10:17:52;;;;;;;3.33;2.20;;;12.40;55.10;;;;;;4991963;28;20436;-49
2023/11/12 10:20:20;;;;;;;2.53;2.33;;;12.50;55.10;;;;;;5001961;28;20480;-52
2023/11/12 10:22:46;;;;;;;2.20;1.90;;;12.60;55.00;;;;;;5003931;28;21187;-52
2023/11/12 10:25:12;;;;;;;2.40;2.20;;;12.80;54.70;;;;;;5010736;28;20531;-50
2023/11/12 10:27:53;;;;;;;2.50;2.20;;;12.90;54.40;;;;;;5006918;28;20464;-51
2023/11/12 10:30:20;;;;;;;2.50;2.20;;;12.90;54.50;;;;;;5007333;28;20441;-52
2023/11/12 10:32:46;;;;;;;2.20;1.60;;;13.00;54.20;;;;;;5007575;28;20511;-49
2023/11/12 10:35:24;;;;;;;1.83;1.73;;;13.10;54.10;;;;;;5008095;28;21074;-49
2023/11/12 10:37:57;;;;;;;2.30;2.10;;;13.20;53.80;;;;;;4993620;28;20195;-52
2023/11/12 10:40:24;;;;;;;2.80;2.00;;;13.00;53.60;;;;;;5003748;28;20493;-50
2023/11/12 10:42:57;;;;;;;1.93;1.70;;;12.90;53.70;;;;;;5008619;28;20838;-50
2023/11/12 10:45:29;;;;;;;2.87;2.47;;;12.50;54.50;;;;;;5006158;28;20425;-53
2023/11/12 10:47:56;;;;;;;1.80;1.70;;;12.60;54.80;;;;;;5006578;28;20455;-54
2023/11/12 10:50:24;;;;;;;3.03;2.37;;;12.40;55.00;;;;;;5008996;28;20464;-54
2023/11/12 10:52:52;;;;;;;1.73;1.63;;;12.30;54.80;;;;;;5009651;28;20925;-53
2023/11/12 10:55:21;;;;;;;3.33;2.03;;;12.50;54.60;;;;;;5010240;28;20990;-52
2023/11/12 10:57:48;;;;;;;4.10;2.37;;;12.60;54.40;;;;;;4995233;28;20440;-48
2023/11/12 11:00:16;;;;;;;2.10;1.90;;;12.60;54.70;;;;;;5010152;28;20965;-53
2023/11/12 11:02:44;;;;;;;2.20;1.97;;;12.70;55.00;;;;;;5007499;28;21229;-50
2023/11/12 11:05:12;;;;;;;2.43;2.20;;;12.90;54.60;;;;;;5007893;28;20437;-51
2023/11/12 11:07:38;;;;;;;2.40;1.90;;;12.60;53.90;;;;;;5008869;28;21000;-50
2023/11/12 11:10:06;;;;;;;4.50;2.70;;;12.30;54.90;;;;;;5010931;28;20460;-48
2023/11/12 11:12:33;;;;;;;3.43;2.23;;;12.20;55.90;;;;;;5007804;28;20801;-52
2023/11/12 11:15:36;;;;;;;2.00;1.80;;;12.50;56.10;;;;;;5008241;28;20995;-53
2023/11/12 11:18:05;;;;;;;3.60;2.20;;;12.80;55.20;;;;;;5007364;28;20795;-52
2023/11/12 11:21:13;;;;;;;3.40;2.20;;;13.00;54.70;;;;;;5009481;28;20471;-49
2023/11/12 11:23:52;;;;;;;3.57;2.53;;;13.30;54.10;;;;;;5006439;28;20429;-48
2023/11/12 11:26:23;;;;;;;4.33;2.43;;;13.40;54.00;;;;;;5007161;28;20431;-48
2023/11/12 11:29:12;;;;;;;3.17;2.80;;;13.40;53.90;;;;;;5008495;28;20444;-50
2023/11/12 11:31:45;;;;;;;4.17;2.57;;;13.40;53.60;;;;;;5006082;28;20559;-53
2023/11/12 11:34:12;;;;;;;3.13;2.50;;;13.30;53.60;;;;;;5010225;28;20425;-48
2023/11/12 11:36:39;;;;;;;2.47;2.20;;;13.50;53.70;;;;;;5008884;28;20469;-53
2023/11/12 11:39:12;;;;;;;2.00;1.90;;;13.50;52.90;;;;;;5010448;28;20463;-50
2023/11/12 11:41:50;;;;;;;8.57;2.50;;;13.60;52.90;;;;;;5008022;28;20450;-53
2023/11/12 11:44:31;;;;;;;3.00;2.13;;;13.80;52.70;;;;;;5008580;28;20972;-52
2023/11/12 11:47:22;;;;;;;5.20;2.40;;;13.60;52.70;;;;;;5008209;28;20444;-48
2023/11/12 11:49:51;;;;;;;2.43;2.20;;;13.70;52.80;;;;;;4998393;28;20461;-50
2023/11/12 11:52:21;;;;;;;2.80;2.33;;;13.80;52.60;;;;;;5008010;28;20429;-48
2023/11/12 11:55:15;;;;;;;2.80;2.53;;;13.80;52.50;;;;;;5008123;28;20480;-51
2023/11/12 11:57:51;;;;;;;2.73;2.30;;;13.90;52.40;;;;;;5007431;28;21030;-49
2023/11/12 12:00:17;;;;;;;3.30;2.50;;;13.90;52.30;;;;;;5007456;28;20815;-53
2023/11/12 12:02:44;;;;;;;4.13;2.83;;;13.90;52.30;;;;;;5007459;28;20440;-47
2023/11/12 12:05:10;;;;;;;3.03;2.40;;;14.00;52.40;;;;;;5006728;28;20465;-50
2023/11/12 12:07:36;;;;;;;3.93;2.27;;;14.00;51.90;;;;;;5003581;28;20451;-48
2023/11/12 12:10:03;;;;;;;4.67;2.23;;;14.10;51.30;;;;;;5009301;28;20472;-54
2023/11/12 12:12:29;;;;;;;2.53;1.80;;;14.10;50.70;;;;;;5008430;28;20526;-52
2023/11/12 12:14:55;;;;;;;4.20;2.00;;;14.10;50.20;;;;;;5008303;28;20474;-50
2023/11/12 12:17:21;;;;;;;2.83;2.00;;;14.10;50.30;;;;;;5007470;28;20447;-53
2023/11/12 12:19:56;;;;;;;1.80;1.70;;;14.20;50.30;;;;;;5009820;28;20576;-50
2023/11/12 12:22:22;;;;;;;2.80;2.17;;;14.20;50.00;;;;;;5005951;28;20263;-49
2023/11/12 12:24:51;;;;;;;3.03;2.57;;;14.10;50.00;;;;;;5007494;28;20455;-54
2023/11/12 12:27:17;;;;;;;4.20;2.83;;;14.00;50.20;;;;;;5007803;28;20444;-53
2023/11/12 12:29:46;;;;;;;2.87;2.20;;;14.10;50.40;;;;;;5008296;28;20519;-48
2023/11/12 12:32:21;;;;;;;3.33;3.03;;;14.00;50.40;;;;;;5008234;28;20527;-51
2023/11/12 12:34:56;;;;;;;3.43;2.73;;;13.90;50.40;;;;;;5008742;28;20487;-50
2023/11/12 12:37:24;;;;;;;3.40;2.80;;;13.90;50.60;;;;;;5004421;28;20435;-50
2023/11/12 12:40:05;;;;;;;3.50;2.67;;;13.90;50.60;;;;;;5004045;28;20834;-50
2023/11/12 12:42:31;;;;;;;3.07;2.77;;;13.90;50.60;;;;;;5005517;28;21042;-48
2023/11/12 12:44:57;;;;;;;4.10;2.57;;;13.90;50.60;;;;;;5009249;28;20431;-49
2023/11/12 12:47:30;;;;;;;3.80;2.80;;;13.90;50.60;;;;;;5000610;28;20673;-50